createdAt,value
2019-05-28T00:03:26.163Z,15.00
2019-05-28T00:08:50.165Z,14.90
2019-05-28T00:14:18.826Z,14.80
2019-05-28T00:19:38.574Z,14.70
2019-05-28T00:25:14.045Z,14.70
2019-05-28T00:30:46.863Z,14.60
2019-05-28T00:36:30.757Z,14.60
2019-05-28T00:41:58.712Z,14.50
2019-05-28T00:47:21.380Z,14.60
2019-05-28T00:52:50.661Z,14.60
2019-05-28T00:58:01.633Z,14.60
2019-05-28T01:03:07.205Z,14.60
2019-05-28T01:08:12.815Z,14.60
2019-05-28T01:13:18.377Z,14.50
2019-05-28T01:18:23.875Z,14.50
2019-05-28T01:23:29.576Z,14.40
2019-05-28T01:28:35.245Z,14.40
2019-05-28T01:33:40.794Z,14.30
2019-05-28T01:38:46.394Z,14.30
2019-05-28T01:43:51.994Z,14.30
2019-05-28T01:48:57.573Z,14.20
2019-05-28T01:54:03.239Z,14.30
2019-05-28T01:59:08.910Z,14.30
2019-05-28T02:04:14.447Z,14.20
2019-05-28T02:09:20.067Z,14.10
2019-05-28T02:14:25.728Z,14.10
2019-05-28T02:19:31.365Z,14.20
2019-05-28T02:24:38.227Z,14.10
2019-05-28T02:29:43.803Z,14.10
2019-05-28T02:34:49.444Z,14.00
2019-05-28T02:39:55.132Z,14.00
2019-05-28T02:45:01.023Z,14.00
2019-05-28T02:50:07.339Z,13.90
2019-05-28T02:55:13.589Z,13.90
2019-05-28T03:00:20.204Z,13.80
2019-05-28T03:05:25.875Z,13.80
2019-05-28T03:15:50.458Z,13.70
2019-05-28T03:20:58.722Z,13.60
2019-05-28T03:26:04.641Z,13.60
2019-05-28T03:31:10.401Z,13.60
2019-05-28T03:36:18.965Z,13.60
2019-05-28T03:41:24.562Z,13.50
2019-05-28T03:46:30.193Z,13.50
2019-05-28T03:51:35.782Z,13.50
2019-05-28T03:56:41.476Z,13.50
2019-05-28T04:01:47.104Z,13.50
2019-05-28T04:06:52.657Z,13.50
2019-05-28T04:11:58.188Z,13.50
2019-05-28T04:17:03.788Z,13.40
2019-05-28T04:22:09.535Z,13.40
2019-05-28T04:27:15.081Z,13.40
2019-05-28T04:32:20.589Z,13.40
2019-05-28T04:37:26.258Z,13.40
2019-05-28T04:42:31.794Z,13.40
2019-05-28T04:47:37.467Z,13.40
2019-05-28T04:52:42.954Z,13.30
2019-05-28T04:57:48.503Z,13.40
2019-05-28T05:02:59.372Z,13.40
2019-05-28T05:08:01.286Z,13.40
2019-05-28T05:13:06.842Z,13.30
2019-05-28T05:18:12.509Z,13.30
2019-05-28T05:23:18.150Z,13.30
2019-05-28T05:28:23.811Z,13.30
2019-05-28T05:33:29.541Z,13.20
2019-05-28T05:38:35.068Z,13.30
2019-05-28T05:43:40.666Z,13.30
2019-05-28T05:48:46.286Z,13.40
2019-05-28T05:53:51.906Z,13.40
2019-05-28T05:58:57.458Z,13.40
2019-05-28T06:04:03.174Z,13.50
2019-05-28T06:09:09.026Z,13.50
2019-05-28T06:14:14.722Z,13.60
2019-05-28T06:19:20.252Z,13.60
2019-05-28T06:24:25.918Z,13.70
2019-05-28T06:29:31.494Z,13.70
2019-05-28T06:34:37.235Z,13.70
2019-05-28T06:39:42.894Z,13.80
2019-05-28T06:44:48.496Z,13.80
2019-05-28T06:49:54.139Z,13.90
2019-05-28T06:54:59.941Z,13.90
2019-05-28T07:00:06.136Z,14.00
2019-05-28T07:05:12.134Z,13.90
2019-05-28T07:10:19.476Z,14.00
2019-05-28T07:15:25.971Z,14.00
2019-05-28T07:20:31.555Z,14.10
2019-05-28T07:25:37.300Z,14.10
2019-05-28T07:30:43.108Z,14.10
2019-05-28T07:35:48.687Z,14.20
2019-05-28T07:40:54.473Z,14.30
2019-05-28T07:46:00.006Z,14.30
2019-05-28T07:51:05.701Z,14.40
2019-05-28T07:56:11.729Z,14.50
2019-05-28T08:01:17.437Z,14.70
2019-05-28T08:06:23.366Z,14.80
2019-05-28T08:11:29.025Z,14.70
2019-05-28T08:16:34.847Z,14.80
2019-05-28T08:21:40.494Z,15.10
2019-05-28T08:26:46.341Z,15.30
2019-05-28T08:31:52.041Z,15.30
2019-05-28T08:37:06.003Z,15.40
2019-05-28T08:42:05.100Z,15.50
2019-05-28T08:47:10.700Z,15.80
2019-05-28T08:52:16.374Z,16.00
2019-05-28T08:57:22.074Z,16.10
2019-05-28T09:02:28.970Z,16.20
2019-05-28T09:07:34.841Z,15.90
2019-05-28T09:12:40.667Z,15.70
2019-05-28T09:17:46.424Z,15.80
2019-05-28T09:22:52.198Z,16.20
2019-05-28T09:27:57.837Z,16.40
2019-05-28T09:33:03.529Z,16.40
2019-05-28T09:38:09.053Z,16.30
2019-05-28T09:43:14.657Z,16.20
2019-05-28T09:48:20.321Z,16.10
2019-05-28T09:53:26.063Z,16.10
2019-05-28T09:58:31.730Z,16.00
2019-05-28T10:03:37.616Z,15.90
2019-05-28T10:08:43.414Z,15.80
2019-05-28T10:13:49.060Z,15.80
2019-05-28T10:18:54.554Z,15.80
2019-05-28T10:24:00.173Z,15.80
2019-05-28T10:29:07.297Z,15.80
2019-05-28T10:34:13.061Z,15.80
2019-05-28T10:39:18.722Z,15.80
2019-05-28T10:44:24.440Z,15.90
2019-05-28T10:49:30.056Z,15.90
2019-05-28T10:54:35.753Z,16.00
2019-05-28T10:59:41.388Z,16.00
2019-05-28T11:04:47.125Z,16.10
2019-05-28T11:09:53.049Z,16.10
2019-05-28T11:14:58.642Z,16.10
2019-05-28T11:20:05.020Z,16.10
2019-05-28T11:25:11.410Z,16.10
2019-05-28T11:30:17.897Z,16.10
2019-05-28T11:35:23.881Z,16.20
2019-05-28T11:40:30.217Z,16.30
2019-05-28T11:45:35.935Z,16.30
2019-05-28T11:50:41.583Z,16.40
2019-05-28T11:55:47.138Z,16.50
2019-05-28T12:00:52.945Z,16.40
2019-05-28T12:05:58.493Z,16.50
2019-05-28T12:11:04.313Z,16.50
2019-05-28T12:16:10.027Z,16.70
2019-05-28T12:21:15.662Z,16.80
2019-05-28T12:26:21.312Z,16.90
2019-05-28T12:31:26.968Z,17.10
2019-05-28T12:36:32.551Z,17.70
2019-05-28T12:41:38.246Z,17.80
2019-05-28T12:46:43.838Z,17.70
2019-05-28T12:51:49.570Z,17.40
2019-05-28T12:56:55.104Z,17.50
2019-05-28T13:02:00.723Z,17.40
2019-05-28T13:07:06.579Z,17.30
2019-05-28T13:12:12.158Z,17.30
2019-05-28T13:17:17.759Z,17.40
2019-05-28T13:22:23.323Z,17.40
2019-05-28T13:27:29.245Z,17.40
2019-05-28T13:32:34.837Z,17.40
2019-05-28T13:37:40.522Z,17.60
2019-05-28T13:42:46.324Z,17.80
2019-05-28T13:47:51.997Z,17.80
2019-05-28T13:52:57.807Z,18.00
2019-05-28T13:58:03.447Z,18.00
2019-05-28T14:03:09.424Z,17.90
2019-05-28T14:08:15.298Z,17.90
2019-05-28T14:13:20.985Z,17.80
2019-05-28T14:18:26.625Z,17.70
2019-05-28T14:23:32.322Z,17.50
2019-05-28T14:28:38.058Z,17.30
2019-05-28T14:33:43.760Z,16.90
2019-05-28T14:39:02.506Z,16.40
2019-05-28T14:43:56.655Z,16.10
2019-05-28T14:49:02.283Z,16.00
2019-05-28T14:54:07.928Z,15.90
2019-05-28T14:59:13.657Z,15.80
2019-05-28T15:04:19.311Z,15.70
2019-05-28T15:09:27.830Z,15.80
2019-05-28T15:14:33.467Z,15.90
2019-05-28T15:19:39.148Z,16.10
2019-05-28T15:24:44.821Z,16.30
2019-05-28T15:29:50.473Z,16.60
2019-05-28T15:34:56.109Z,16.70
2019-05-28T15:40:01.803Z,16.70
2019-05-28T15:45:07.890Z,16.70
2019-05-28T15:50:14.312Z,16.70
2019-05-28T15:55:19.896Z,16.70
2019-05-28T16:00:26.549Z,16.70
2019-05-28T16:05:32.274Z,16.80
2019-05-28T16:10:37.923Z,16.90
2019-05-28T16:15:43.527Z,16.90
2019-05-28T16:20:49.115Z,17.10
2019-05-28T16:25:54.759Z,17.30
2019-05-28T16:31:11.802Z,17.40
2019-05-28T16:36:08.237Z,17.50
2019-05-28T16:41:13.997Z,17.30
2019-05-28T16:46:19.931Z,17.20
2019-05-28T16:51:25.667Z,17.70
2019-05-28T16:56:31.515Z,18.30
2019-05-28T17:01:37.185Z,18.70
2019-05-28T17:06:42.819Z,18.40
2019-05-28T17:11:48.601Z,18.10
2019-05-28T17:16:54.184Z,17.90
2019-05-28T17:21:59.716Z,17.70
2019-05-28T17:27:05.395Z,17.60
2019-05-28T17:32:11.123Z,17.50
2019-05-28T17:37:16.747Z,17.40
2019-05-28T17:42:22.339Z,17.30
2019-05-28T17:47:28.205Z,17.50
2019-05-28T17:52:33.811Z,17.50
2019-05-28T17:57:39.383Z,17.40
2019-05-28T18:02:48.342Z,17.20
2019-05-28T18:07:52.403Z,17.10
2019-05-28T18:12:58.082Z,17.10
2019-05-28T18:18:03.684Z,17.00
2019-05-28T18:23:09.354Z,16.80
2019-05-28T18:28:15.045Z,16.70
2019-05-28T18:33:20.738Z,16.70
2019-05-28T18:38:26.460Z,16.70
2019-05-28T18:43:32.334Z,16.70
2019-05-28T18:48:38.494Z,16.80
2019-05-28T18:53:44.764Z,16.70
2019-05-28T18:58:50.552Z,16.70
2019-05-28T19:03:56.551Z,16.70
2019-05-28T19:09:02.428Z,17.10
2019-05-28T19:14:07.999Z,16.90
2019-05-28T19:19:13.900Z,16.80
2019-05-28T19:24:19.505Z,16.60
2019-05-28T19:29:25.071Z,16.50
2019-05-28T19:34:30.946Z,16.40
2019-05-28T19:39:39.174Z,16.30
2019-05-28T19:44:43.951Z,16.30
2019-05-28T19:49:49.750Z,16.30
2019-05-28T19:54:55.741Z,16.20
2019-05-28T20:00:01.543Z,16.10
2019-05-28T20:05:07.646Z,16.00
2019-05-28T20:10:13.832Z,15.90
2019-05-28T20:15:22.512Z,15.80
2019-05-28T20:20:27.638Z,15.70
2019-05-28T20:25:33.369Z,15.70
2019-05-28T20:30:39.125Z,15.50
2019-05-28T20:35:44.835Z,15.40
2019-05-28T20:40:50.691Z,15.40
2019-05-28T20:45:56.317Z,15.40
2019-05-28T20:51:10.718Z,15.40
2019-05-28T20:56:09.646Z,15.30
2019-05-28T21:01:15.219Z,15.20
2019-05-28T21:06:20.823Z,15.10
2019-05-28T21:11:26.529Z,15.20
2019-05-28T21:16:32.245Z,15.70
2019-05-28T21:21:37.907Z,15.60
2019-05-28T21:26:43.606Z,15.30
2019-05-28T21:31:50.470Z,15.20
2019-05-28T21:36:57.081Z,15.10
2019-05-28T21:42:03.297Z,15.00
2019-05-28T21:47:09.021Z,14.90
2019-05-28T21:52:14.577Z,14.90
2019-05-28T21:57:20.177Z,14.80
2019-05-28T22:02:25.811Z,14.60
2019-05-28T22:07:31.473Z,14.50
2019-05-28T22:12:39.745Z,14.40
2019-05-28T22:17:45.533Z,14.40
2019-05-28T22:22:52.001Z,14.40
2019-05-28T22:27:58.570Z,14.30
2019-05-28T22:33:04.441Z,14.30
2019-05-28T22:38:10.139Z,14.30
2019-05-28T22:43:30.455Z,14.20
2019-05-28T22:48:22.969Z,14.10
2019-05-28T22:53:28.632Z,14.10
2019-05-28T22:58:34.337Z,14.10
2019-05-28T23:03:40.018Z,14.00
2019-05-28T23:08:45.582Z,14.00
2019-05-28T23:13:51.197Z,14.00
2019-05-28T23:18:56.748Z,14.00
2019-05-28T23:24:03.166Z,14.10
2019-05-28T23:29:09.841Z,14.00
2019-05-28T23:34:15.460Z,13.80
2019-05-28T23:39:21.139Z,13.60
2019-05-28T23:44:26.723Z,13.50
2019-05-28T23:49:32.268Z,13.50
2019-05-28T23:54:37.781Z,13.70
2019-05-28T23:59:43.556Z,13.70
